Time;durP1;ratioP1;P1;durP2;ratioP2;P2;SDS_P1;SDS_P2;PMS_P1;PMS_P2;Temp;Humidity;BMP_temperature;BMP_pressure;BME280_temperature;BME280_humidity;BME280_pressure;Samples;Min_cycle;Max_cycle;Signal;HPM_P1;HPM_P2
2020/12/31 00:01:46;;;;;;;9.77;6.53;;;4.60;92.30;;;;;;6153373;23;20012;-85
2020/12/31 00:04:19;;;;;;;10.25;6.63;;;4.60;92.30;;;;;;6153874;23;20084;-86
2020/12/31 00:06:52;;;;;;;9.65;6.40;;;4.60;92.30;;;;;;6153917;23;20005;-86
2020/12/31 00:09:18;;;;;;;9.90;6.43;;;4.60;92.30;;;;;;6154365;23;20076;-85
2020/12/31 00:11:51;;;;;;;7.82;5.95;;;4.60;92.30;;;;;;6153166;23;20032;-87
2020/12/31 00:14:26;;;;;;;8.98;5.93;;;4.60;92.30;;;;;;6105777;23;20033;-86
2020/12/31 00:17:04;;;;;;;;;;;;;;;;;;;;;
2020/12/31 00:19:33;;;;;;;9.00;5.72;;;4.50;92.30;;;;;;6154515;23;20416;-86
2020/12/31 00:22:07;;;;;;;7.45;5.50;;;4.50;92.30;;;;;;6153188;23;20056;-85
2020/12/31 00:24:57;;;;;;;;;;;;;;;;;;;;;
2020/12/31 00:27:32;;;;;;;7.32;5.05;;;4.60;92.30;;;;;;6153339;23;20084;-85
2020/12/31 00:30:16;;;;;;;7.00;5.30;;;4.50;92.30;;;;;;6153022;23;20006;-86
2020/12/31 00:32:46;;;;;;;6.45;4.95;;;4.60;92.30;;;;;;6154517;23;20068;-87
2020/12/31 00:35:29;;;;;;;7.70;4.88;;;4.60;92.30;;;;;;6153176;23;20365;-86
2020/12/31 00:37:57;;;;;;;5.88;4.40;;;4.60;92.30;;;;;;6155087;23;20420;-86
2020/12/31 00:40:28;;;;;;;5.57;4.30;;;4.60;92.30;;;;;;6153432;23;20074;-85
2020/12/31 00:42:57;;;;;;;5.85;4.68;;;4.60;92.30;;;;;;6153950;23;20305;-86
2020/12/31 00:45:23;;;;;;;6.78;4.90;;;4.60;92.30;;;;;;6152711;23;20002;-85
2020/12/31 00:47:54;;;;;;;5.90;4.10;;;4.60;92.30;;;;;;6153695;23;20054;-85
2020/12/31 00:50:26;;;;;;;6.97;4.40;;;4.60;92.30;;;;;;6105149;23;20006;-85
2020/12/31 00:52:52;;;;;;;6.55;4.82;;;4.60;92.30;;;;;;6153305;23;20388;-85
2020/12/31 00:55:29;;;;;;;5.88;4.35;;;4.60;92.30;;;;;;6152287;23;20008;-86
2020/12/31 00:58:15;;;;;;;;;;;;;;;;;;;;;
2020/12/31 01:00:51;;;;;;;7.57;3.95;;;4.60;92.30;;;;;;6153034;23;20092;-86
2020/12/31 01:03:19;;;;;;;7.00;3.92;;;4.60;92.30;;;;;;6130201;23;20021;-85
2020/12/31 01:05:48;;;;;;;6.60;3.63;;;4.60;92.30;;;;;;6154264;23;20006;-86
2020/12/31 01:08:21;;;;;;;5.68;3.67;;;4.60;92.30;;;;;;6153426;23;19998;-86
2020/12/31 01:11:07;;;;;;;;;;;;;;;;;;;;;
2020/12/31 01:13:36;;;;;;;5.57;3.63;;;4.60;92.30;;;;;;6154172;23;20117;-86
2020/12/31 01:16:15;;;;;;;;;;;;;;;;;;;;;
2020/12/31 01:18:44;;;;;;;5.03;3.60;;;4.60;92.30;;;;;;6153319;23;20085;-85
2020/12/31 01:21:22;;;;;;;6.00;3.88;;;4.60;92.30;;;;;;6154502;23;20008;-86
2020/12/31 01:23:48;;;;;;;5.22;3.95;;;4.60;92.30;;;;;;6131664;23;20002;-85
2020/12/31 01:26:33;;;;;;;5.57;4.10;;;4.60;92.30;;;;;;6154353;23;20005;-86
2020/12/31 01:29:06;;;;;;;5.43;4.03;;;4.60;92.30;;;;;;6153615;23;20029;-86
2020/12/31 01:31:34;;;;;;;6.53;3.60;;;4.60;92.30;;;;;;6153088;23;20048;-86
2020/12/31 01:34:10;;;;;;;4.60;3.60;;;4.60;92.30;;;;;;6153244;23;20324;-85
2020/12/31 01:36:38;;;;;;;4.97;3.80;;;4.60;92.30;;;;;;6153617;23;20011;-86
2020/12/31 01:39:04;;;;;;;4.53;3.20;;;4.60;92.30;;;;;;6152740;23;20448;-84
2020/12/31 01:41:32;;;;;;;4.82;3.55;;;4.60;92.30;;;;;;6151867;23;20084;-85
2020/12/31 01:45:05;;;;;;;4.22;3.50;;;4.50;92.30;;;;;;6128663;23;20017;-86
2020/12/31 01:47:42;;;;;;;3.97;3.58;;;4.60;92.30;;;;;;6153680;23;20080;-84
2020/12/31 01:50:31;;;;;;;4.30;3.80;;;4.50;92.30;;;;;;6152416;23;20025;-86
2020/12/31 01:53:25;;;;;;;5.18;4.07;;;4.50;92.30;;;;;;6131495;23;20010;-86
2020/12/31 01:56:03;;;;;;;4.72;3.70;;;4.50;92.30;;;;;;6129565;23;20012;-85
2020/12/31 01:58:35;;;;;;;5.63;4.20;;;4.50;92.30;;;;;;6151767;23;20451;-85
2020/12/31 02:01:28;;;;;;;6.38;5.25;;;4.50;92.30;;;;;;6152552;23;20068;-85
2020/12/31 02:03:58;;;;;;;9.88;6.13;;;4.50;92.30;;;;;;6152276;23;20439;-86
2020/12/31 02:06:34;;;;;;;9.15;6.05;;;4.50;92.30;;;;;;6152062;23;20059;-85
2020/12/31 02:09:11;;;;;;;8.48;6.78;;;4.50;92.30;;;;;;6153255;23;20012;-85
2020/12/31 02:11:44;;;;;;;9.10;7.15;;;4.50;92.40;;;;;;6127193;23;20009;-86
2020/12/31 02:14:21;;;;;;;9.27;7.32;;;4.50;92.40;;;;;;6130616;23;20009;-85
2020/12/31 02:16:57;;;;;;;10.43;8.45;;;4.50;92.40;;;;;;6152964;23;20049;-85
2020/12/31 02:19:23;;;;;;;11.45;8.93;;;4.50;92.40;;;;;;6154436;23;20010;-86
2020/12/31 02:24:41;;;;;;;9.27;7.97;;;4.50;92.40;;;;;;6154732;23;20098;-85
2020/12/31 02:29:55;;;;;;;9.45;7.97;;;4.50;92.40;;;;;;6153754;23;20088;-87
2020/12/31 02:32:24;;;;;;;9.57;7.68;;;4.50;92.40;;;;;;6152022;23;20068;-88
2020/12/31 02:34:50;;;;;;;8.45;7.25;;;4.50;92.40;;;;;;6152553;23;20002;-86
2020/12/31 02:37:44;;;;;;;9.18;7.40;;;4.50;92.40;;;;;;6152949;23;20079;-87
2020/12/31 02:40:11;;;;;;;8.75;6.55;;;4.50;92.40;;;;;;6153519;23;20017;-85
2020/12/31 02:42:42;;;;;;;8.68;5.88;;;4.50;92.40;;;;;;6129171;23;20019;-86
2020/12/31 02:45:16;;;;;;;6.40;5.75;;;4.50;92.40;;;;;;6129917;23;20006;-86
2020/12/31 02:47:55;;;;;;;7.60;6.22;;;4.50;92.50;;;;;;6155565;23;20009;-86
2020/12/31 02:50:27;;;;;;;7.10;5.93;;;4.50;92.40;;;;;;6131661;23;20108;-86
2020/12/31 02:53:23;;;;;;;6.63;5.85;;;4.50;92.40;;;;;;6155290;23;20005;-86
2020/12/31 02:56:06;;;;;;;;;;;;;;;;;;;;;
2020/12/31 02:58:41;;;;;;;7.53;6.30;;;4.50;92.40;;;;;;6155093;23;20088;-84
2020/12/31 03:01:18;;;;;;;;;;;;;;;;;;;;;
2020/12/31 03:03:44;;;;;;;6.70;5.63;;;4.50;92.50;;;;;;6156738;23;20093;-86
2020/12/31 03:06:10;;;;;;;7.45;6.22;;;4.50;92.50;;;;;;6154485;23;20060;-85
2020/12/31 03:08:45;;;;;;;8.07;6.50;;;4.50;92.50;;;;;;6155005;23;20014;-84
2020/12/31 03:11:23;;;;;;;6.88;6.15;;;4.50;92.40;;;;;;6153958;23;20041;-88
2020/12/31 03:13:53;;;;;;;6.63;5.70;;;4.50;92.40;;;;;;6154995;23;20002;-85
2020/12/31 03:16:26;;;;;;;6.75;5.88;;;4.50;92.50;;;;;;6152475;23;20004;-87
2020/12/31 03:18:55;;;;;;;6.97;5.78;;;4.50;92.50;;;;;;6153879;23;19998;-85
2020/12/31 03:21:24;;;;;;;6.05;5.45;;;4.40;92.40;;;;;;6152837;23;19998;-87
2020/12/31 03:23:52;;;;;;;6.88;5.70;;;4.40;92.50;;;;;;6156591;23;20004;-85
2020/12/31 03:26:21;;;;;;;5.68;4.82;;;4.50;92.50;;;;;;6129735;23;20006;-87
2020/12/31 03:28:48;;;;;;;5.78;4.90;;;4.50;92.50;;;;;;6156311;23;20177;-86
2020/12/31 03:31:23;;;;;;;6.25;4.88;;;4.50;92.50;;;;;;6153262;23;20029;-86
2020/12/31 03:33:51;;;;;;;6.57;5.18;;;4.50;92.50;;;;;;6154858;23;20093;-86
2020/12/31 03:36:22;;;;;;;5.28;4.47;;;4.50;92.80;;;;;;6154252;23;20013;-86
2020/12/31 03:38:50;;;;;;;5.22;4.22;;;4.50;92.50;;;;;;6131293;23;20013;-85
2020/12/31 03:41:25;;;;;;;4.53;3.90;;;4.40;92.50;;;;;;6154018;23;20009;-88
2020/12/31 03:44:09;;;;;;;5.18;4.40;;;4.40;92.50;;;;;;6130594;23;20435;-85
2020/12/31 03:46:39;;;;;;;4.80;4.30;;;4.40;92.40;;;;;;6130857;23;20310;-86
2020/12/31 03:49:27;;;;;;;4.80;3.77;;;4.40;92.40;;;;;;6130951;23;20364;-85
2020/12/31 03:52:00;;;;;;;5.60;4.10;;;4.40;92.50;;;;;;6153620;23;20245;-86
2020/12/31 03:54:51;;;;;;;4.90;4.40;;;4.40;92.50;;;;;;6129738;23;20033;-86
2020/12/31 03:57:17;;;;;;;4.70;4.20;;;4.40;92.50;;;;;;6153549;23;20001;-85
2020/12/31 03:59:43;;;;;;;4.72;4.00;;;4.40;92.40;;;;;;6154337;23;20017;-86
2020/12/31 04:02:28;;;;;;;5.47;4.18;;;4.40;92.40;;;;;;6152472;23;19997;-87
2020/12/31 04:04:57;;;;;;;4.35;3.78;;;4.40;92.40;;;;;;6154155;23;20060;-85
2020/12/31 04:07:28;;;;;;;4.80;3.83;;;4.40;92.50;;;;;;6154022;23;20033;-85
2020/12/31 04:09:56;;;;;;;5.27;3.47;;;4.40;92.40;;;;;;6105635;23;20010;-85
2020/12/31 04:12:24;;;;;;;4.10;3.70;;;4.40;92.40;;;;;;6154797;23;20233;-89
2020/12/31 04:14:53;;;;;;;4.68;4.00;;;4.40;92.50;;;;;;6154210;23;20102;-86
2020/12/31 04:17:19;;;;;;;5.57;3.80;;;4.40;92.50;;;;;;6153711;23;20001;-86
2020/12/31 04:19:44;;;;;;;5.55;4.00;;;4.40;92.40;;;;;;6152883;23;20100;-85
2020/12/31 04:22:22;;;;;;;;;;;;;;;;;;;;;
2020/12/31 04:24:56;;;;;;;3.97;3.55;;;4.40;92.50;;;;;;6154179;23;20080;-85
2020/12/31 04:27:26;;;;;;;5.00;4.03;;;4.40;92.40;;;;;;6106518;23;20072;-86
2020/12/31 04:29:58;;;;;;;4.70;3.70;;;4.40;92.40;;;;;;6153889;23;20388;-85
2020/12/31 04:32:37;;;;;;;4.97;3.45;;;4.40;92.40;;;;;;6152965;23;19998;-89
2020/12/31 04:35:05;;;;;;;3.97;3.58;;;4.40;92.40;;;;;;6153056;23;20443;-85
2020/12/31 04:40:36;;;;;;;3.80;3.45;;;4.40;92.40;;;;;;6154821;23;20009;-87
2020/12/31 04:43:07;;;;;;;4.63;3.42;;;4.40;92.40;;;;;;6154643;23;20068;-85
2020/12/31 04:45:34;;;;;;;4.28;3.55;;;4.40;92.40;;;;;;6129873;23;20006;-85
2020/12/31 04:48:15;;;;;;;5.03;3.88;;;4.40;92.40;;;;;;6153551;23;20483;-85
2020/12/31 04:50:50;;;;;;;4.43;3.73;;;4.40;92.40;;;;;;6153499;23;20001;-85
2020/12/31 04:53:29;;;;;;;4.88;3.78;;;4.40;92.40;;;;;;6152673;23;20096;-86
2020/12/31 04:56:09;;;;;;;4.78;3.45;;;4.40;92.40;;;;;;6153783;23;19997;-85
2020/12/31 04:58:43;;;;;;;5.00;4.07;;;4.40;92.40;;;;;;6153251;23;20428;-85
2020/12/31 05:01:09;;;;;;;5.53;4.60;;;4.40;92.40;;;;;;6153983;23;20009;-85
2020/12/31 05:03:40;;;;;;;4.65;3.80;;;4.40;92.40;;;;;;6152800;23;20017;-86
2020/12/31 05:06:39;;;;;;;4.53;3.80;;;4.40;92.40;;;;;;6154224;23;20416;-88
2020/12/31 05:09:23;;;;;;;4.72;3.97;;;4.40;92.40;;;;;;6134475;23;20297;-88
2020/12/31 05:12:08;;;;;;;4.78;3.65;;;4.40;92.40;;;;;;6127948;23;20005;-89
2020/12/31 05:15:03;;;;;;;5.60;3.70;;;4.40;92.40;;;;;;6154482;23;20386;-86
2020/12/31 05:17:32;;;;;;;4.90;3.55;;;4.40;92.40;;;;;;6153303;23;20001;-88
2020/12/31 05:20:21;;;;;;;5.05;3.55;;;4.30;92.40;;;;;;6152977;23;20064;-86
2020/12/31 05:23:18;;;;;;;;;;;;;;;;;;;;;
2020/12/31 05:25:45;;;;;;;4.45;3.20;;;4.40;92.40;;;;;;6154144;23;20088;-85
2020/12/31 05:28:40;;;;;;;4.43;3.40;;;4.30;92.40;;;;;;6154470;23;20001;-85
2020/12/31 05:31:21;;;;;;;4.88;3.83;;;4.30;92.40;;;;;;6153446;23;20372;-86
2020/12/31 05:34:04;;;;;;;3.92;3.10;;;4.30;92.40;;;;;;6152982;23;20056;-86
2020/12/31 05:36:45;;;;;;;3.22;2.92;;;4.30;92.40;;;;;;6154514;23;20428;-86
2020/12/31 05:39:17;;;;;;;4.53;3.10;;;4.30;92.40;;;;;;6153608;23;20336;-85
2020/12/31 05:42:03;;;;;;;5.40;3.28;;;4.30;92.40;;;;;;6152709;23;20005;-85
2020/12/31 05:44:59;;;;;;;3.92;3.30;;;4.30;92.40;;;;;;6135080;23;20006;-87
2020/12/31 05:47:25;;;;;;;4.55;3.15;;;4.30;92.40;;;;;;6153127;23;20080;-86
2020/12/31 05:50:07;;;;;;;;;;;;;;;;;;;;;
2020/12/31 05:52:47;;;;;;;5.68;3.20;;;4.30;92.30;;;;;;6154524;23;20080;-85
2020/12/31 05:55:18;;;;;;;6.47;3.55;;;4.30;92.30;;;;;;6153361;23;20139;-86
2020/12/31 05:57:46;;;;;;;4.00;2.90;;;4.30;92.30;;;;;;6152409;23;20006;-85
2020/12/31 06:00:22;;;;;;;5.18;3.30;;;4.30;92.30;;;;;;6153077;23;20020;-87
2020/12/31 06:02:51;;;;;;;4.10;2.92;;;4.30;92.30;;;;;;6152664;23;19997;-85
2020/12/31 06:05:18;;;;;;;3.90;3.30;;;4.40;92.30;;;;;;6152483;23;20483;-85
2020/12/31 06:07:55;;;;;;;3.78;2.90;;;4.30;92.30;;;;;;6152810;23;20037;-84
2020/12/31 06:10:29;;;;;;;3.65;3.10;;;4.30;92.30;;;;;;6152620;23;20013;-86
2020/12/31 06:13:17;;;;;;;5.68;3.42;;;4.40;92.30;;;;;;6152571;23;20005;-87
2020/12/31 06:15:49;;;;;;;5.70;3.60;;;4.30;92.30;;;;;;6152379;23;20034;-86
2020/12/31 06:18:37;;;;;;;3.70;2.90;;;4.30;92.30;;;;;;6152963;23;20352;-85
2020/12/31 06:21:16;;;;;;;5.43;3.08;;;4.30;92.30;;;;;;6155186;23;20017;-86
2020/12/31 06:23:47;;;;;;;6.25;3.58;;;4.30;92.30;;;;;;6132631;23;20009;-83
2020/12/31 06:26:26;;;;;;;5.45;3.40;;;4.30;92.30;;;;;;6156507;23;20005;-87
2020/12/31 06:29:17;;;;;;;4.15;3.58;;;4.30;92.30;;;;;;6154261;23;20068;-85
2020/12/31 06:31:52;;;;;;;4.97;3.53;;;4.40;92.30;;;;;;6154990;23;20016;-87
2020/12/31 06:34:26;;;;;;;4.40;3.38;;;4.30;92.30;;;;;;6153591;23;20052;-85
2020/12/31 06:37:02;;;;;;;4.18;3.13;;;4.30;92.30;;;;;;6130589;23;20530;-87
2020/12/31 06:39:47;;;;;;;3.47;3.17;;;4.30;92.30;;;;;;6155732;23;20497;-86
2020/12/31 06:43:02;;;;;;;3.97;3.00;;;4.30;92.20;;;;;;6155028;23;20003;-84
2020/12/31 06:45:51;;;;;;;4.57;3.00;;;4.30;92.20;;;;;;6147540;23;20446;-85
2020/12/31 06:48:26;;;;;;;4.22;2.90;;;4.30;92.20;;;;;;6153743;23;20006;-85
2020/12/31 06:51:09;;;;;;;2.65;2.42;;;4.30;92.20;;;;;;6155768;23;20016;-86
2020/12/31 06:53:53;;;;;;;2.70;2.05;;;4.30;92.20;;;;;;6154522;23;20125;-87
2020/12/31 06:56:44;;;;;;;3.55;2.60;;;4.30;92.10;;;;;;6154055;23;20002;-87
2020/12/31 06:59:32;;;;;;;4.78;2.78;;;4.30;92.10;;;;;;6154204;23;20002;-84
2020/12/31 07:02:19;;;;;;;4.10;2.65;;;4.30;92.10;;;;;;6154317;23;20001;-86
2020/12/31 07:04:51;;;;;;;3.38;2.88;;;4.30;92.10;;;;;;6154642;23;20045;-85
2020/12/31 07:07:16;;;;;;;;;;;4.30;92.10;;;;;;6154835;23;20013;-85
2020/12/31 07:09:54;;;;;;;3.65;2.55;;;4.30;92.10;;;;;;6153987;23;20231;-86
2020/12/31 07:12:48;;;;;;;3.15;2.47;;;4.30;92.10;;;;;;6155254;23;20081;-85
2020/12/31 07:15:19;;;;;;;5.03;2.30;;;4.20;92.10;;;;;;6152755;23;20010;-86
2020/12/31 07:17:50;;;;;;;3.17;2.25;;;4.20;92.10;;;;;;6128578;23;20005;-86
2020/12/31 07:20:21;;;;;;;4.43;2.55;;;4.30;92.10;;;;;;6153208;23;20010;-84
2020/12/31 07:22:51;;;;;;;3.72;2.85;;;4.20;92.10;;;;;;6154663;23;20005;-86
2020/12/31 07:25:24;;;;;;;2.97;2.67;;;4.20;92.10;;;;;;6153927;23;20077;-86
2020/12/31 07:27:52;;;;;;;3.10;2.80;;;4.30;92.10;;;;;;6155878;23;19997;-86
2020/12/31 07:30:22;;;;;;;3.10;2.72;;;4.20;92.10;;;;;;6152868;23;20016;-85
2020/12/31 07:33:13;;;;;;;3.50;2.25;;;4.30;92.10;;;;;;6130574;23;20009;-85
2020/12/31 07:35:49;;;;;;;3.67;2.28;;;4.20;92.10;;;;;;6153312;23;20005;-84
2020/12/31 07:38:21;;;;;;;3.30;2.28;;;4.30;92.10;;;;;;6154972;23;20097;-87
2020/12/31 07:40:59;;;;;;;2.30;2.00;;;4.30;92.10;;;;;;6154086;23;20016;-85
2020/12/31 07:43:28;;;;;;;3.42;2.20;;;4.30;92.10;;;;;;6154994;23;20013;-84
2020/12/31 07:46:07;;;;;;;4.10;1.90;;;4.20;92.10;;;;;;6129739;23;20005;-86
2020/12/31 07:48:33;;;;;;;2.60;1.88;;;4.30;92.10;;;;;;6154410;23;20044;-85
2020/12/31 07:51:10;;;;;;;1.85;1.50;;;4.30;92.10;;;;;;6152866;23;20006;-85
2020/12/31 07:53:45;;;;;;;1.77;1.55;;;4.30;92.10;;;;;;6130044;23;20077;-85
2020/12/31 07:56:39;;;;;;;3.03;1.60;;;4.30;92.10;;;;;;6130067;23;20032;-84
2020/12/31 07:59:24;;;;;;;;;;;;;;;;;;;;;
2020/12/31 08:02:00;;;;;;;;;;;;;;;;;;;;;
2020/12/31 08:04:41;;;;;;;;;;;;;;;;;;;;;
2020/12/31 08:07:15;;;;;;;2.45;1.60;;;4.30;92.00;;;;;;6155864;23;20085;-85
2020/12/31 08:09:50;;;;;;;2.60;1.70;;;4.20;92.00;;;;;;6152957;23;20002;-86
2020/12/31 08:12:17;;;;;;;2.08;1.88;;;4.20;92.00;;;;;;6154091;23;20005;-85
2020/12/31 08:14:59;;;;;;;;;;;;;;;;;;;;;
2020/12/31 08:17:34;;;;;;;5.63;3.42;;;4.30;92.30;;;;;;6155626;23;20080;-86
2020/12/31 08:20:13;;;;;;;;;;;;;;;;;;;;;
2020/12/31 08:22:42;;;;;;;8.60;3.40;;;4.20;92.00;;;;;;6154996;23;20387;-84
2020/12/31 08:25:24;;;;;;;6.18;2.47;;;4.20;92.00;;;;;;6153154;23;20388;-86
2020/12/31 08:28:04;;;;;;;;;;;;;;;;;;;;;
2020/12/31 08:31:07;;;;;;;3.25;1.83;;;4.20;92.00;;;;;;6154583;23;20104;-84
2020/12/31 08:33:40;;;;;;;2.22;1.83;;;4.20;92.00;;;;;;6153702;23;20002;-85
2020/12/31 08:36:11;;;;;;;2.10;1.50;;;4.20;92.00;;;;;;6154528;23;20005;-85
2020/12/31 08:38:38;;;;;;;1.90;1.50;;;4.20;92.00;;;;;;6154663;23;20358;-85
2020/12/31 08:41:14;;;;;;;2.08;1.60;;;4.20;92.00;;;;;;6151992;23;20017;-84
2020/12/31 08:43:43;;;;;;;2.03;1.58;;;4.20;92.00;;;;;;6130060;23;20447;-85
2020/12/31 08:46:21;;;;;;;2.03;1.83;;;4.20;92.00;;;;;;6153589;23;20001;-85
2020/12/31 08:49:02;;;;;;;1.70;1.35;;;4.20;92.00;;;;;;6153846;23;20320;-85
2020/12/31 08:51:29;;;;;;;3.33;1.85;;;4.20;92.00;;;;;;6153290;23;20052;-85
2020/12/31 08:53:56;;;;;;;2.60;2.00;;;4.20;92.00;;;;;;6129367;23;20001;-85
2020/12/31 08:56:28;;;;;;;2.55;1.98;;;4.20;92.00;;;;;;6153125;23;20081;-85
2020/12/31 08:59:16;;;;;;;1.88;1.63;;;4.20;92.00;;;;;;6154018;23;20001;-85
2020/12/31 09:01:44;;;;;;;2.33;1.95;;;4.20;92.00;;;;;;6153043;23;20018;-85
2020/12/31 09:04:18;;;;;;;3.03;2.00;;;4.20;91.90;;;;;;6129186;23;20022;-85
2020/12/31 09:06:48;;;;;;;2.30;2.00;;;4.20;91.90;;;;;;6129642;23;20100;-86
2020/12/31 09:09:28;;;;;;;2.63;1.92;;;4.10;91.90;;;;;;6153354;23;20001;-86
2020/12/31 09:12:08;;;;;;;;;;;;;;;;;;;;;
2020/12/31 09:15:04;;;;;;;3.47;2.28;;;4.20;91.90;;;;;;6154958;23;20081;-85
2020/12/31 09:17:37;;;;;;;3.10;2.22;;;4.20;91.90;;;;;;6153738;23;20004;-85
2020/12/31 09:20:08;;;;;;;2.08;1.80;;;4.20;91.90;;;;;;6152354;23;20017;-86
2020/12/31 09:22:42;;;;;;;2.13;1.88;;;4.20;92.00;;;;;;6151688;23;20024;-85
2020/12/31 09:25:22;;;;;;;5.80;3.33;;;4.20;92.00;;;;;;6152508;23;20006;-87
2020/12/31 09:27:51;;;;;;;8.60;4.88;;;4.20;92.00;;;;;;6153457;23;20004;-86
2020/12/31 09:30:35;;;;;;;3.92;2.95;;;4.20;92.10;;;;;;6128777;23;20020;-86
2020/12/31 09:33:03;;;;;;;4.47;3.28;;;4.20;92.10;;;;;;6152986;23;20037;-86
2020/12/31 09:35:33;;;;;;;5.53;2.88;;;4.20;92.10;;;;;;6153469;23;20009;-86
2020/12/31 09:38:11;;;;;;;3.58;2.55;;;4.30;92.10;;;;;;6152398;23;20006;-87
2020/12/31 09:40:49;;;;;;;3.00;2.30;;;4.30;92.10;;;;;;6153056;23;20309;-85
2020/12/31 09:43:27;;;;;;;2.50;1.95;;;4.30;92.10;;;;;;6153591;23;20008;-85
2020/12/31 09:46:05;;;;;;;;;;;;;;;;;;;;;
2020/12/31 09:48:35;;;;;;;3.13;2.05;;;4.30;92.10;;;;;;6154725;23;20077;-86
2020/12/31 09:51:26;;;;;;;2.70;2.20;;;4.30;92.10;;;;;;6128936;23;20020;-87
2020/12/31 09:53:52;;;;;;;4.32;2.83;;;4.20;92.00;;;;;;6136129;23;20036;-85
2020/12/31 09:56:53;;;;;;;5.53;3.47;;;4.30;92.00;;;;;;6152669;23;20483;-87
2020/12/31 09:59:21;;;;;;;4.05;2.50;;;4.30;92.10;;;;;;6075760;23;20016;-87
2020/12/31 10:01:54;;;;;;;4.18;2.55;;;4.30;92.10;;;;;;6126982;23;20006;-86
2020/12/31 10:04:30;;;;;;;;;;;;;;;;;;;;;
2020/12/31 10:07:01;;;;;;;1.67;1.52;;;4.30;92.10;;;;;;6152546;23;20077;-86
2020/12/31 10:09:49;;;;;;;2.45;1.88;;;4.30;92.10;;;;;;6152379;23;20001;-83
2020/12/31 10:12:25;;;;;;;3.03;1.70;;;4.30;92.10;;;;;;6130286;23;20010;-86
2020/12/31 10:14:51;;;;;;;2.78;2.28;;;4.30;92.10;;;;;;6153552;23;20012;-88
2020/12/31 10:17:20;;;;;;;3.60;1.95;;;4.30;92.10;;;;;;6151238;23;20092;-86
2020/12/31 10:20:03;;;;;;;2.40;1.85;;;4.30;92.10;;;;;;6126479;23;20014;-85
2020/12/31 10:22:34;;;;;;;2.60;1.80;;;4.40;92.10;;;;;;6152250;23;19997;-84
2020/12/31 10:25:00;;;;;;;2.17;1.85;;;4.40;92.10;;;;;;6151538;23;20092;-85
2020/12/31 10:27:38;;;;;;;2.58;2.00;;;4.40;92.10;;;;;;6152862;23;20002;-85
2020/12/31 10:30:15;;;;;;;2.55;1.98;;;4.40;92.10;;;;;;6153953;23;20005;-86
2020/12/31 10:32:44;;;;;;;5.95;4.50;;;4.40;92.10;;;;;;6153175;23;20386;-84
2020/12/31 10:35:20;;;;;;;6.95;4.85;;;4.40;92.00;;;;;;6151931;23;19997;-84
2020/12/31 10:37:46;;;;;;;5.40;3.65;;;4.40;92.00;;;;;;6129086;23;20010;-84
2020/12/31 10:40:15;;;;;;;3.97;3.10;;;4.40;91.90;;;;;;6126889;23;20483;-86
2020/12/31 10:42:43;;;;;;;3.17;2.45;;;4.40;91.90;;;;;;6152682;23;20079;-85
2020/12/31 10:45:20;;;;;;;2.92;2.35;;;4.50;92.00;;;;;;6152261;23;20447;-86
2020/12/31 10:47:51;;;;;;;2.75;2.38;;;4.50;92.00;;;;;;6151896;23;20152;-85
2020/12/31 10:50:17;;;;;;;3.15;2.50;;;4.50;92.00;;;;;;6152235;23;20109;-83
2020/12/31 10:53:00;;;;;;;3.50;2.80;;;4.50;92.00;;;;;;6127088;23;20034;-85
2020/12/31 10:58:35;;;;;;;6.90;4.95;;;4.50;91.90;;;;;;6153337;23;20001;-85
2020/12/31 11:01:23;;;;;;;9.90;8.90;;;4.50;91.80;;;;;;6151213;23;20089;-85
2020/12/31 11:04:02;;;;;;;10.60;8.98;;;4.50;91.80;;;;;;6127774;23;20432;-86
2020/12/31 11:06:35;;;;;;;7.68;6.25;;;4.50;91.80;;;;;;6153097;23;20013;-84
2020/12/31 11:09:01;;;;;;;6.40;4.90;;;4.50;91.60;;;;;;6153749;23;20076;-85
2020/12/31 11:11:33;;;;;;;5.35;4.45;;;4.50;91.60;;;;;;6153753;23;20002;-86
2020/12/31 11:14:10;;;;;;;5.32;4.35;;;4.50;91.60;;;;;;6153552;23;20009;-85
2020/12/31 11:16:36;;;;;;;5.60;4.72;;;4.50;91.60;;;;;;6152910;23;20005;-85
2020/12/31 11:19:05;;;;;;;7.18;5.63;;;4.50;91.60;;;;;;6153716;23;20005;-86
2020/12/31 11:21:31;;;;;;;6.13;4.55;;;4.60;91.70;;;;;;6129083;23;20056;-85
2020/12/31 11:24:07;;;;;;;;;;;;;;;;;;;;;
2020/12/31 11:26:33;;;;;;;5.18;4.38;;;4.60;91.70;;;;;;6154670;23;20076;-85
2020/12/31 11:29:01;;;;;;;7.22;4.53;;;4.60;92.00;;;;;;6153484;23;20021;-85
2020/12/31 11:31:30;;;;;;;4.60;3.80;;;4.70;91.70;;;;;;6153326;23;20019;-86
2020/12/31 11:34:00;;;;;;;5.85;4.28;;;4.70;91.80;;;;;;6153582;23;20017;-86
2020/12/31 11:36:29;;;;;;;4.82;4.00;;;4.70;91.80;;;;;;6129001;23;20037;-86
2020/12/31 11:38:58;;;;;;;4.78;4.07;;;4.80;91.90;;;;;;6152563;23;20033;-85
2020/12/31 11:41:36;;;;;;;5.68;4.03;;;4.80;91.90;;;;;;6151001;23;20013;-84
2020/12/31 11:44:06;;;;;;;6.45;4.88;;;4.90;91.80;;;;;;6151869;23;20002;-85
2020/12/31 11:46:45;;;;;;;;;;;;;;;;;;;;;
2020/12/31 11:49:18;;;;;;;8.90;6.35;;;4.90;92.10;;;;;;6152888;23;20093;-85
2020/12/31 11:51:48;;;;;;;6.15;4.90;;;5.00;91.90;;;;;;6153622;23;20010;-86
2020/12/31 11:54:31;;;;;;;6.03;4.80;;;5.00;91.80;;;;;;6152864;23;20092;-85
2020/12/31 11:56:59;;;;;;;4.72;4.22;;;5.00;91.70;;;;;;6154371;23;20013;-85
2020/12/31 11:59:25;;;;;;;4.95;4.15;;;5.10;91.70;;;;;;6153055;23;20385;-88
2020/12/31 12:02:11;;;;;;;5.57;4.15;;;5.10;91.70;;;;;;6154457;23;20073;-85
2020/12/31 12:04:39;;;;;;;5.30;4.22;;;5.10;92.00;;;;;;6152138;23;20455;-85
2020/12/31 12:07:07;;;;;;;4.15;3.72;;;5.10;91.70;;;;;;6129283;23;20005;-86
2020/12/31 12:09:41;;;;;;;5.40;4.55;;;5.20;91.60;;;;;;6153151;23;20005;-86
2020/12/31 12:12:10;;;;;;;4.88;4.05;;;5.20;91.80;;;;;;6153741;23;20092;-84
2020/12/31 12:14:39;;;;;;;6.43;4.40;;;5.20;91.40;;;;;;6153569;23;19997;-85
2020/12/31 12:17:16;;;;;;;4.95;3.90;;;5.10;91.40;;;;;;6153119;23;19998;-87
2020/12/31 12:19:44;;;;;;;4.45;3.83;;;5.20;91.50;;;;;;6152930;23;20017;-86
2020/12/31 12:22:22;;;;;;;3.85;3.45;;;5.20;91.50;;;;;;6154676;23;20124;-84
2020/12/31 12:28:40;;;;;;;4.03;3.50;;;5.20;91.40;;;;;;6092680;23;20077;-86
2020/12/31 12:31:12;;;;;;;4.03;3.60;;;5.30;91.40;;;;;;6154643;23;20269;-87
2020/12/31 12:33:42;;;;;;;4.78;4.18;;;5.20;91.30;;;;;;6154019;23;20305;-86
2020/12/31 12:36:19;;;;;;;5.15;3.70;;;5.20;91.20;;;;;;6128698;23;20033;-87
2020/12/31 12:39:08;;;;;;;5.07;4.10;;;5.30;91.20;;;;;;6151591;23;20536;-87
2020/12/31 12:41:36;;;;;;;5.18;3.97;;;5.20;91.20;;;;;;6154379;23;20014;-87
2020/12/31 12:44:04;;;;;;;5.03;4.03;;;5.20;91.20;;;;;;6153559;23;20005;-87
2020/12/31 12:46:52;;;;;;;5.00;3.80;;;5.20;91.20;;;;;;6152745;23;20006;-86
2020/12/31 12:49:30;;;;;;;4.70;3.95;;;5.30;91.30;;;;;;6152586;23;20438;-88
2020/12/31 12:51:56;;;;;;;4.85;4.25;;;5.20;91.20;;;;;;6153405;23;20002;-87
2020/12/31 12:54:29;;;;;;;11.63;7.40;;;5.20;91.20;;;;;;6152898;23;20012;-87
2020/12/31 12:57:03;;;;;;;10.18;5.70;;;5.20;91.30;;;;;;6153529;23;20088;-86
2020/12/31 12:59:32;;;;;;;7.18;4.80;;;5.20;91.30;;;;;;6151545;23;20020;-86
2020/12/31 13:02:06;;;;;;;5.68;4.13;;;5.20;91.30;;;;;;6153527;23;20009;-86
2020/12/31 13:04:34;;;;;;;4.18;3.78;;;5.20;91.30;;;;;;6128865;23;20117;-87
2020/12/31 13:07:06;;;;;;;5.13;3.78;;;5.20;91.20;;;;;;6153285;23;20002;-86
2020/12/31 13:10:08;;;;;;;4.70;3.45;;;5.20;91.20;;;;;;6153041;23;20525;-85
2020/12/31 13:12:54;;;;;;;4.47;3.22;;;5.20;91.20;;;;;;6130075;23;20025;-86
2020/12/31 13:15:29;;;;;;;3.42;2.97;;;5.10;91.20;;;;;;6152715;23;20099;-86
2020/12/31 13:18:01;;;;;;;3.78;3.17;;;5.10;91.20;;;;;;6154791;23;20033;-86
2020/12/31 13:20:30;;;;;;;5.13;3.70;;;5.20;91.20;;;;;;6153904;23;20009;-88
2020/12/31 13:23:03;;;;;;;6.47;3.70;;;5.10;91.20;;;;;;6153415;23;20483;-88
2020/12/31 13:25:34;;;;;;;4.93;3.90;;;5.20;91.20;;;;;;6129211;23;20006;-87
2020/12/31 13:28:00;;;;;;;4.28;3.75;;;5.20;91.30;;;;;;6129438;23;20006;-82
2020/12/31 13:30:32;;;;;;;5.45;4.00;;;5.10;91.20;;;;;;6151796;23;20016;-86
2020/12/31 13:33:24;;;;;;;4.95;3.85;;;5.20;91.30;;;;;;6152597;23;20008;-86
2020/12/31 13:35:50;;;;;;;5.85;4.43;;;5.20;91.30;;;;;;6131323;23;20014;-87
2020/12/31 13:38:27;;;;;;;5.18;4.38;;;5.20;91.20;;;;;;6153356;23;20076;-87
2020/12/31 13:41:16;;;;;;;6.68;4.40;;;5.20;91.20;;;;;;6154286;23;20018;-90
2020/12/31 13:43:44;;;;;;;5.10;4.13;;;5.20;91.20;;;;;;6082405;23;20012;-86
2020/12/31 13:46:27;;;;;;;;;;;;;;;;;;;;;
2020/12/31 13:48:59;;;;;;;4.85;3.90;;;5.20;91.20;;;;;;6154073;23;20084;-87
2020/12/31 13:51:27;;;;;;;7.63;5.80;;;5.20;91.20;;;;;;6153016;23;20005;-87
2020/12/31 13:54:16;;;;;;;10.75;7.30;;;5.20;91.10;;;;;;6129127;23;20026;-87
2020/12/31 13:57:00;;;;;;;10.60;7.70;;;5.20;91.00;;;;;;6130829;23;20503;-88
2020/12/31 13:59:49;;;;;;;;;;;;;;;;;;;;;
2020/12/31 14:02:45;;;;;;;;;;;;;;;;;;;;;
2020/12/31 14:05:43;;;;;;;13.27;10.30;;;5.10;90.70;;;;;;6152078;23;20088;-88
2020/12/31 14:08:22;;;;;;;13.80;9.10;;;5.10;90.70;;;;;;6128285;23;20104;-87
2020/12/31 14:10:53;;;;;;;15.07;10.18;;;5.10;90.70;;;;;;6130022;23;20018;-89
2020/12/31 14:13:32;;;;;;;14.75;10.05;;;5.10;90.70;;;;;;6152765;23;20005;-89
2020/12/31 14:16:06;;;;;;;12.70;9.23;;;5.10;90.70;;;;;;6107228;23;20006;-89
2020/12/31 14:18:45;;;;;;;16.70;11.32;;;5.10;90.70;;;;;;6153468;23;20086;-87
2020/12/31 14:21:19;;;;;;;14.93;10.63;;;5.10;90.70;;;;;;6129311;23;20049;-87
2020/12/31 14:23:53;;;;;;;15.30;10.02;;;5.00;90.50;;;;;;6152579;23;20001;-86